Inmocean — ZCXX2 — position and weather

sailwx.info

Track history (hours):
 
Tides and Currents Weather Stations Pressure Air Temp Water Temp Dewpoint Dewpoint Depression Visibility Wind Speed Wind Dir Waves Ship Positions

Inmocean

Last reported at 2015-May-17 18:24 UTC. Time now 2015-May-29 16:25 UTC.
Position N 38°28' E 000°53'.
Warning: this ship's position is 11 days out of date.

Type: Sailing vessel. MMSI: 319120000.

Date/timePositionNaut miles runAvg speedWind from/ knotsBaromVisibWave heightAir tempDewpointWater temp
2015-May-17 18:24N 38°28' E 000°53'810.0
2015-May-17 17:33N 38°23' E 000°45'10 9.5
2015-May-17 16:32N 38°16' E 000°35'9 9.4
2015-May-17 15:33N 38°10' E 000°26'9 9.0
2015-May-17 14:33N 38°04' E 000°18'9 9.2
2015-May-17 13:33N 37°58' E 000°09'10 9.4
2015-May-17 12:28N 37°52' W 000°01'9 9.4
2015-May-17 11:33N 37°47' W 000°10'9 9.5
2015-May-17 10:34N 37°41' W 000°19'10 9.9
2015-May-17 09:33N 37°35' W 000°29'1010.0
2015-May-17 08:31N 37°28' W 000°39'10 9.8
2015-May-17 07:32N 37°23' W 000°49'9 9.2
2015-May-17 06:33N 37°17' W 000°58'22 9.2
2015-May-17 04:09N 37°04' W 001°21'6 9.6
2015-May-17 03:30N 37°01' W 001°27'  
Track history (hours):
 
Tides and Currents Weather Stations Pressure Air Temp Water Temp Dewpoint Dewpoint Depression Visibility Wind Speed Wind Dir Waves Ship Positions

Inmocean

Last reported at 2015-May-17 18:24 UTC. Time now 2015-May-29 16:25 UTC.
Position N 38°28' E 000°53'.
Warning: this ship's position is 11 days out of date.

Type: Sailing vessel. MMSI: 319120000.

Date/timePositionNaut miles runAvg speedWind from/ knotsBaromVisibWave heightAir tempDewpointWater temp
2015-May-17 18:24N 38°28' E 000°53'810.0
2015-May-17 17:33N 38°23' E 000°45'10 9.5
2015-May-17 16:32N 38°16' E 000°35'9 9.4
2015-May-17 15:33N 38°10' E 000°26'9 9.0
2015-May-17 14:33N 38°04' E 000°18'9 9.2
2015-May-17 13:33N 37°58' E 000°09'10 9.4
2015-May-17 12:28N 37°52' W 000°01'9 9.4
2015-May-17 11:33N 37°47' W 000°10'9 9.5
2015-May-17 10:34N 37°41' W 000°19'10 9.9
2015-May-17 09:33N 37°35' W 000°29'1010.0
2015-May-17 08:31N 37°28' W 000°39'10 9.8
2015-May-17 07:32N 37°23' W 000°49'9 9.2
2015-May-17 06:33N 37°17' W 000°58'22 9.2
2015-May-17 04:09N 37°04' W 001°21'6 9.6
2015-May-17 03:30N 37°01' W 001°27'  

Dump ship's entire track history